WZZ1628 EGGW-EYVI
Flight info
| Callsign | WZZ1628 |
|---|---|
| Flight time | N/A |
| Altitude | 35000 |
| Route | MATCH Q295 SOMVA DCT MAVAS DCT PARYD DCT LUWIL/N0454F370 DCT BINKA DCT OTRIV DCT BOKSU DCT IRKAL |
| Aircraft | A321/M-SDE3FGHIRWY/LB1 |
Departure
| Time | 2026-04-28 15:35 |
|---|---|
| Airport | London Luton Airport (EGGW) |
Arrival
| Time | N/A |
|---|---|
| Airport | Vilnius International Airport (EYVI) |
| Time | Latitude | Longitude | Altitude | Speed | Heading |
|---|---|---|---|---|---|
| 2026-04-28 15:09 | 51.88073 | -0.37347 | 519 ft | 0 kts | 342° |
| 2026-04-28 15:22 | 51.88063 | -0.37342 | 520 ft | 2 kts | 341° |
| 2026-04-28 15:23 | 51.88049 | -0.37334 | 520 ft | 2 kts | 333° |
| 2026-04-28 15:23 | 51.88038 | -0.37319 | 519 ft | 2 kts | 308° |
| 2026-04-28 15:23 | 51.88030 | -0.37297 | 519 ft | 2 kts | 285° |
| 2026-04-28 15:23 | 51.88028 | -0.37273 | 519 ft | 2 kts | 264° |
| 2026-04-28 15:24 | 51.88032 | -0.37250 | 518 ft | 2 kts | 247° |
| 2026-04-28 15:24 | 51.88038 | -0.37227 | 518 ft | 2 kts | 253° |
| 2026-04-28 15:24 | 51.88042 | -0.37205 | 517 ft | 0 kts | 251° |
| 2026-04-28 15:24 | 51.88045 | -0.37189 | 517 ft | 2 kts | 236° |
| 2026-04-28 15:25 | 51.88056 | -0.37172 | 517 ft | 2 kts | 212° |
| 2026-04-28 15:25 | 51.88070 | -0.37163 | 517 ft | 2 kts | 188° |
| 2026-04-28 15:25 | 51.88084 | -0.37163 | 517 ft | 0 kts | 166° |
| 2026-04-28 15:25 | 51.88090 | -0.37166 | 517 ft | 1 kts | 162° |
| 2026-04-28 15:26 | 51.88091 | -0.37167 | 517 ft | 0 kts | 163° |
| 2026-04-28 15:27 | 51.88088 | -0.37166 | 517 ft | 1 kts | 162° |
| 2026-04-28 15:27 | 51.88069 | -0.37156 | 517 ft | 4 kts | 162° |
| 2026-04-28 15:28 | 51.88043 | -0.37142 | 517 ft | 1 kts | 162° |
| 2026-04-28 15:28 | 51.88026 | -0.37134 | 517 ft | 3 kts | 162° |
| 2026-04-28 15:28 | 51.87992 | -0.37115 | 517 ft | 6 kts | 162° |
| 2026-04-28 15:28 | 51.87947 | -0.37091 | 518 ft | 7 kts | 161° |
| 2026-04-28 15:29 | 51.87900 | -0.37065 | 519 ft | 7 kts | 161° |
| 2026-04-28 15:29 | 51.87851 | -0.37037 | 520 ft | 7 kts | 161° |
| 2026-04-28 15:29 | 51.87800 | -0.37011 | 522 ft | 7 kts | 163° |
| 2026-04-28 15:29 | 51.87752 | -0.36986 | 523 ft | 6 kts | 162° |
| 2026-04-28 15:30 | 51.87707 | -0.36963 | 525 ft | 6 kts | 162° |
| 2026-04-28 15:30 | 51.87664 | -0.36947 | 526 ft | 6 kts | 182° |
| 2026-04-28 15:30 | 51.87633 | -0.36978 | 528 ft | 4 kts | 235° |
| 2026-04-28 15:30 | 51.87617 | -0.37045 | 528 ft | 8 kts | 253° |
| 2026-04-28 15:31 | 51.87599 | -0.37142 | 528 ft | 9 kts | 254° |
| 2026-04-28 15:31 | 51.87580 | -0.37258 | 529 ft | 11 kts | 259° |
| 2026-04-28 15:31 | 51.87583 | -0.37386 | 529 ft | 11 kts | 267° |
| 2026-04-28 15:31 | 51.87532 | -0.37483 | 530 ft | 11 kts | 223° |
| 2026-04-28 15:32 | 51.87497 | -0.37602 | 530 ft | 12 kts | 253° |
| 2026-04-28 15:32 | 51.87471 | -0.37745 | 529 ft | 14 kts | 254° |
| 2026-04-28 15:32 | 51.87440 | -0.37917 | 524 ft | 14 kts | 254° |
| 2026-04-28 15:32 | 51.87392 | -0.38041 | 519 ft | 12 kts | 217° |
| 2026-04-28 15:33 | 51.87303 | -0.38102 | 514 ft | 13 kts | 188° |
| 2026-04-28 15:33 | 51.87229 | -0.38179 | 508 ft | 15 kts | 243° |
| 2026-04-28 15:33 | 51.87197 | -0.38260 | 501 ft | 9 kts | 227° |
| 2026-04-28 15:33 | 51.87192 | -0.38309 | 497 ft | 5 kts | 317° |
| 2026-04-28 15:34 | 51.87210 | -0.38309 | 497 ft | 1 kts | 66° |
| 2026-04-28 15:34 | 51.87211 | -0.38305 | 497 ft | 0 kts | 76° |
| 2026-04-28 15:34 | 51.87211 | -0.38303 | 498 ft | 3 kts | 76° |
| 2026-04-28 15:34 | 51.87292 | -0.37850 | 526 ft | 84 kts | 74° |
| 2026-04-28 15:35 | 51.87523 | -0.36505 | 535 ft | 160 kts | 73° |
| 2026-04-28 15:35 | 51.88148 | -0.32759 | 2519 ft | 172 kts | 71° |
| 2026-04-28 15:35 | 51.88446 | -0.31050 | 3846 ft | 157 kts | 72° |
| 2026-04-28 15:36 | 51.88727 | -0.29470 | 4732 ft | 152 kts | 73° |
| 2026-04-28 15:36 | 51.89022 | -0.27777 | 5119 ft | 164 kts | 74° |
| 2026-04-28 15:36 | 51.89346 | -0.25908 | 5459 ft | 180 kts | 74° |
| 2026-04-28 15:36 | 51.89603 | -0.23835 | 5794 ft | 198 kts | 86° |
| 2026-04-28 15:37 | 51.89375 | -0.21501 | 6060 ft | 224 kts | 107° |
| 2026-04-28 15:37 | 51.88539 | -0.19237 | 6477 ft | 245 kts | 120° |
| 2026-04-28 15:37 | 51.87819 | -0.16770 | 7086 ft | 247 kts | 97° |
| 2026-04-28 15:37 | 51.87790 | -0.14000 | 7870 ft | 247 kts | 86° |
| 2026-04-28 15:38 | 51.87832 | -0.11196 | 8618 ft | 251 kts | 89° |
| 2026-04-28 15:38 | 51.87783 | -0.08387 | 9346 ft | 254 kts | 92° |
| 2026-04-28 15:38 | 51.87658 | -0.05517 | 10063 ft | 257 kts | 94° |
| 2026-04-28 15:38 | 51.87480 | -0.02660 | 10707 ft | 262 kts | 95° |
| 2026-04-28 15:39 | 51.87255 | 0.00396 | 11048 ft | 279 kts | 96° |
| 2026-04-28 15:39 | 51.86994 | 0.03575 | 11352 ft | 295 kts | 96° |
| 2026-04-28 15:39 | 51.86702 | 0.06932 | 11634 ft | 310 kts | 97° |
| 2026-04-28 15:39 | 51.86380 | 0.10498 | 11911 ft | 325 kts | 97° |
| 2026-04-28 15:40 | 51.86041 | 0.14154 | 12333 ft | 334 kts | 97° |
| 2026-04-28 15:40 | 51.85689 | 0.17907 | 12939 ft | 338 kts | 97° |
| 2026-04-28 15:40 | 51.85334 | 0.21647 | 13626 ft | 343 kts | 97° |
| 2026-04-28 15:40 | 51.84971 | 0.25454 | 14585 ft | 345 kts | 97° |
| 2026-04-28 15:41 | 51.84605 | 0.29269 | 15509 ft | 347 kts | 97° |
| 2026-04-28 15:41 | 51.84232 | 0.33121 | 16377 ft | 350 kts | 97° |
| 2026-04-28 15:41 | 51.83858 | 0.36984 | 17182 ft | 353 kts | 98° |
| 2026-04-28 15:41 | 51.83473 | 0.40931 | 17982 ft | 355 kts | 97° |
| 2026-04-28 15:42 | 51.83091 | 0.44841 | 18762 ft | 358 kts | 97° |
| 2026-04-28 15:42 | 51.82703 | 0.48811 | 19446 ft | 360 kts | 97° |
| 2026-04-28 15:42 | 51.82311 | 0.52810 | 20066 ft | 364 kts | 97° |
| 2026-04-28 15:42 | 51.81909 | 0.56908 | 20569 ft | 369 kts | 97° |
| 2026-04-28 15:43 | 51.81573 | 0.61013 | 21106 ft | 373 kts | 92° |
| 2026-04-28 15:43 | 51.81679 | 0.65170 | 21673 ft | 376 kts | 83° |
| 2026-04-28 15:43 | 51.82258 | 0.69309 | 22210 ft | 380 kts | 74° |
| 2026-04-28 15:43 | 51.83214 | 0.73312 | 22749 ft | 384 kts | 70° |
| 2026-04-28 15:44 | 51.84242 | 0.77298 | 23266 ft | 386 kts | 69° |
| 2026-04-28 15:44 | 51.85290 | 0.81322 | 23736 ft | 390 kts | 70° |
| 2026-04-28 15:44 | 51.86343 | 0.85374 | 24183 ft | 392 kts | 70° |
| 2026-04-28 15:44 | 51.87387 | 0.89417 | 24593 ft | 395 kts | 69° |
| 2026-04-28 15:45 | 51.88448 | 0.93541 | 24987 ft | 397 kts | 69° |
| 2026-04-28 15:45 | 51.89514 | 0.97684 | 25356 ft | 399 kts | 70° |
| 2026-04-28 15:45 | 51.90575 | 1.01818 | 25635 ft | 401 kts | 70° |
| 2026-04-28 15:45 | 51.91649 | 1.06023 | 25913 ft | 404 kts | 70° |
| 2026-04-28 15:46 | 51.92730 | 1.10252 | 26223 ft | 405 kts | 70° |
| 2026-04-28 15:46 | 51.93811 | 1.14497 | 26538 ft | 406 kts | 70° |
| 2026-04-28 15:46 | 51.94874 | 1.18678 | 26839 ft | 408 kts | 70° |
| 2026-04-28 15:46 | 51.95966 | 1.22981 | 27124 ft | 409 kts | 69° |
| 2026-04-28 15:47 | 51.97040 | 1.27220 | 27419 ft | 411 kts | 69° |
| 2026-04-28 15:47 | 51.98121 | 1.31496 | 27666 ft | 412 kts | 69° |
| 2026-04-28 15:47 | 51.99214 | 1.35820 | 27969 ft | 413 kts | 69° |
| 2026-04-28 15:47 | 52.00294 | 1.40098 | 28316 ft | 412 kts | 69° |
| 2026-04-28 15:48 | 52.01375 | 1.44401 | 28657 ft | 411 kts | 69° |
| 2026-04-28 15:48 | 52.02444 | 1.48662 | 29000 ft | 410 kts | 69° |
| 2026-04-28 15:48 | 52.03511 | 1.52923 | 29348 ft | 409 kts | 69° |
| 2026-04-28 15:48 | 52.04594 | 1.57250 | 29757 ft | 409 kts | 69° |
| 2026-04-28 15:49 | 52.05650 | 1.61482 | 30194 ft | 408 kts | 69° |
| 2026-04-28 15:49 | 52.06719 | 1.65777 | 30654 ft | 406 kts | 70° |
| 2026-04-28 15:49 | 52.07767 | 1.69989 | 31054 ft | 405 kts | 70° |
| 2026-04-28 15:49 | 52.08830 | 1.74282 | 31378 ft | 406 kts | 70° |
| 2026-04-28 15:50 | 52.09889 | 1.78558 | 31694 ft | 406 kts | 70° |
| 2026-04-28 15:50 | 52.10932 | 1.82778 | 31988 ft | 407 kts | 70° |
| 2026-04-28 15:50 | 52.11985 | 1.87048 | 32293 ft | 408 kts | 70° |
| 2026-04-28 15:50 | 52.13040 | 1.91329 | 32601 ft | 408 kts | 70° |
| 2026-04-28 15:51 | 52.14086 | 1.95589 | 32883 ft | 409 kts | 70° |
| 2026-04-28 15:51 | 52.15138 | 1.99879 | 33181 ft | 409 kts | 70° |
| 2026-04-28 15:51 | 52.16197 | 2.04208 | 33504 ft | 409 kts | 70° |
| 2026-04-28 15:51 | 52.17240 | 2.08476 | 33805 ft | 408 kts | 70° |
| 2026-04-28 15:52 | 52.18298 | 2.12819 | 34067 ft | 409 kts | 69° |
| 2026-04-28 15:52 | 52.19342 | 2.17109 | 34291 ft | 411 kts | 70° |
| 2026-04-28 15:52 | 52.20389 | 2.21420 | 34485 ft | 412 kts | 69° |
| 2026-04-28 15:52 | 52.21452 | 2.25804 | 34699 ft | 413 kts | 70° |
| 2026-04-28 15:53 | 52.22514 | 2.30200 | 34904 ft | 414 kts | 69° |
| 2026-04-28 15:53 | 52.23560 | 2.34526 | 35042 ft | 416 kts | 69° |
| 2026-04-28 15:53 | 52.24628 | 2.38957 | 35154 ft | 419 kts | 69° |
| 2026-04-28 15:53 | 52.25689 | 2.43367 | 35238 ft | 421 kts | 69° |
| 2026-04-28 15:54 | 52.27832 | 2.52302 | 35263 ft | 423 kts | 69° |
| 2026-04-28 15:54 | 52.29958 | 2.61222 | 35273 ft | 422 kts | 70° |
| 2026-04-28 15:55 | 52.31759 | 2.70298 | 35270 ft | 420 kts | 74° |
| 2026-04-28 15:55 | 52.33387 | 2.79521 | 35267 ft | 420 kts | 74° |
| 2026-04-28 15:56 | 52.34990 | 2.88672 | 35251 ft | 420 kts | 74° |
| 2026-04-28 15:56 | 52.36599 | 2.97877 | 35299 ft | 424 kts | 74° |
| 2026-04-28 15:57 | 52.37412 | 3.02547 | 35519 ft | 423 kts | 74° |
| 2026-04-28 15:57 | 52.38216 | 3.07187 | 35744 ft | 422 kts | 74° |
| 2026-04-28 15:57 | 52.39012 | 3.11797 | 35922 ft | 421 kts | 74° |
| 2026-04-28 15:57 | 52.39807 | 3.16413 | 36086 ft | 422 kts | 74° |
| 2026-04-28 15:58 | 52.40593 | 3.20973 | 36290 ft | 422 kts | 74° |
| 2026-04-28 15:58 | 52.41396 | 3.25641 | 36478 ft | 423 kts | 74° |
| 2026-04-28 15:58 | 52.42184 | 3.30226 | 36644 ft | 424 kts | 73° |
| 2026-04-28 15:58 | 52.42989 | 3.34920 | 36808 ft | 425 kts | 73° |
| 2026-04-28 15:59 | 52.43784 | 3.39573 | 36952 ft | 426 kts | 74° |
| 2026-04-28 15:59 | 52.44572 | 3.44200 | 37087 ft | 426 kts | 73° |
| 2026-04-28 15:59 | 52.45370 | 3.48899 | 37214 ft | 426 kts | 73° |
| 2026-04-28 15:59 | 52.46162 | 3.53562 | 37211 ft | 427 kts | 73° |
| 2026-04-28 16:00 | 52.47747 | 3.62937 | 37219 ft | 427 kts | 73° |
| 2026-04-28 16:00 | 52.49324 | 3.72325 | 37220 ft | 427 kts | 74° |
| 2026-04-28 16:01 | 52.50897 | 3.81736 | 37239 ft | 428 kts | 74° |
| 2026-04-28 16:01 | 52.52453 | 3.91110 | 37246 ft | 428 kts | 74° |
| 2026-04-28 16:02 | 52.54012 | 4.00534 | 37232 ft | 428 kts | 74° |
| 2026-04-28 16:02 | 52.55567 | 4.09993 | 37229 ft | 428 kts | 74° |
| 2026-04-28 16:03 | 52.56658 | 4.16665 | 37241 ft | 428 kts | 74° |
| 2026-04-28 16:03 | 52.57430 | 4.21397 | 37248 ft | 428 kts | 74° |
| 2026-04-28 16:04 | 52.58966 | 4.30852 | 37257 ft | 428 kts | 74° |
| 2026-04-28 16:04 | 52.60488 | 4.40280 | 37246 ft | 427 kts | 74° |
| 2026-04-28 16:05 | 52.62014 | 4.49787 | 37235 ft | 429 kts | 73° |
| 2026-04-28 16:05 | 52.63526 | 4.59259 | 37246 ft | 428 kts | 73° |
| 2026-04-28 16:06 | 52.65030 | 4.68732 | 37247 ft | 427 kts | 74° |
| 2026-04-28 16:06 | 52.66520 | 4.78165 | 37247 ft | 427 kts | 74° |
| 2026-04-28 16:07 | 52.68004 | 4.87618 | 37247 ft | 428 kts | 74° |
| 2026-04-28 16:08 | 52.70228 | 5.01901 | 37230 ft | 430 kts | 74° |
| 2026-04-28 16:08 | 52.71704 | 5.11449 | 37240 ft | 431 kts | 74° |
| 2026-04-28 16:09 | 52.73910 | 5.25807 | 37255 ft | 429 kts | 74° |
| 2026-04-28 16:10 | 52.76094 | 5.40161 | 37251 ft | 430 kts | 74° |
| 2026-04-28 16:10 | 52.78262 | 5.54536 | 37257 ft | 431 kts | 74° |
| 2026-04-28 16:11 | 52.81127 | 5.73734 | 37237 ft | 432 kts | 75° |
| 2026-04-28 16:12 | 52.83263 | 5.88200 | 37280 ft | 432 kts | 75° |
| 2026-04-28 16:13 | 52.85379 | 6.02660 | 37274 ft | 433 kts | 75° |
| 2026-04-28 16:14 | 52.88190 | 6.22096 | 37273 ft | 434 kts | 74° |
| 2026-04-28 16:15 | 52.90965 | 6.41510 | 37259 ft | 434 kts | 74° |
| 2026-04-28 16:15 | 52.92337 | 6.51201 | 37263 ft | 433 kts | 74° |
| 2026-04-28 16:16 | 52.94381 | 6.65763 | 37267 ft | 433 kts | 75° |
| 2026-04-28 16:17 | 52.96417 | 6.80404 | 37267 ft | 435 kts | 75° |
| 2026-04-28 16:17 | 52.97765 | 6.90178 | 37279 ft | 435 kts | 75° |
| 2026-04-28 16:18 | 52.99106 | 6.99953 | 37278 ft | 435 kts | 75° |
| 2026-04-28 16:18 | 53.00431 | 7.09692 | 37267 ft | 435 kts | 75° |
| 2026-04-28 16:19 | 53.01754 | 7.19469 | 37265 ft | 435 kts | 75° |
| 2026-04-28 16:19 | 53.03076 | 7.29302 | 37272 ft | 435 kts | 75° |
| 2026-04-28 16:20 | 53.04414 | 7.39093 | 37276 ft | 436 kts | 74° |
| 2026-04-28 16:20 | 53.05796 | 7.48931 | 37272 ft | 435 kts | 74° |
| 2026-04-28 16:21 | 53.07162 | 7.58702 | 37274 ft | 436 kts | 74° |
| 2026-04-28 16:21 | 53.08524 | 7.68526 | 37284 ft | 436 kts | 75° |
| 2026-04-28 16:22 | 53.09873 | 7.78313 | 37285 ft | 436 kts | 75° |
| 2026-04-28 16:22 | 53.11223 | 7.88168 | 37278 ft | 436 kts | 75° |
| 2026-04-28 16:23 | 53.12559 | 7.98005 | 37282 ft | 436 kts | 75° |
| 2026-04-28 16:23 | 53.13883 | 8.07817 | 37288 ft | 436 kts | 75° |
| 2026-04-28 16:24 | 53.14212 | 8.10261 | 37291 ft | 436 kts | 74° |
| 2026-04-28 16:24 | 53.14784 | 8.14531 | 37292 ft | 436 kts | 74° |
| 2026-04-28 16:25 | 53.16101 | 8.24393 | 37289 ft | 437 kts | 75° |
| 2026-04-28 16:25 | 53.17414 | 8.34291 | 37280 ft | 437 kts | 75° |
| 2026-04-28 16:26 | 53.18712 | 8.44160 | 37293 ft | 438 kts | 74° |
| 2026-04-28 16:26 | 53.20005 | 8.54048 | 37301 ft | 438 kts | 74° |
| 2026-04-28 16:27 | 53.21292 | 8.63963 | 37293 ft | 437 kts | 74° |
| 2026-04-28 16:28 | 53.23211 | 8.78864 | 37289 ft | 438 kts | 75° |
| 2026-04-28 16:28 | 53.24477 | 8.88793 | 37286 ft | 438 kts | 75° |
| 2026-04-28 16:29 | 53.26363 | 9.03708 | 37297 ft | 438 kts | 75° |
| 2026-04-28 16:30 | 53.28223 | 9.18580 | 37316 ft | 438 kts | 75° |
| 2026-04-28 16:30 | 53.29456 | 9.28528 | 37322 ft | 438 kts | 75° |
| 2026-04-28 16:31 | 53.30682 | 9.38493 | 37326 ft | 439 kts | 75° |
| 2026-04-28 16:31 | 53.31907 | 9.48506 | 37332 ft | 440 kts | 75° |
| 2026-04-28 16:32 | 53.33116 | 9.58488 | 37324 ft | 440 kts | 75° |
| 2026-04-28 16:32 | 53.34926 | 9.73557 | 37324 ft | 440 kts | 76° |
| 2026-04-28 16:33 | 53.35915 | 9.81867 | 37346 ft | 440 kts | 76° |
| 2026-04-28 16:33 | 53.37295 | 9.93545 | 37354 ft | 440 kts | 75° |
| 2026-04-28 16:34 | 53.38472 | 10.03597 | 37350 ft | 440 kts | 75° |
| 2026-04-28 16:34 | 53.39060 | 10.08648 | 37602 ft | 441 kts | 75° |
| 2026-04-28 16:34 | 53.39638 | 10.13621 | 37473 ft | 440 kts | 75° |